sensor_id;sensor_type;location;lat;lon;timestamp;temperature;humidity
32600;DHT22;19277;51.778;7.912;2022-10-17T00:00:49;22.20;84.10
32600;DHT22;19277;51.778;7.912;2022-10-17T00:03:15;22.30;84.00
32600;DHT22;19277;51.778;7.912;2022-10-17T00:05:42;22.30;83.90
32600;DHT22;19277;51.778;7.912;2022-10-17T00:08:09;22.30;83.70
32600;DHT22;19277;51.778;7.912;2022-10-17T00:10:35;22.40;83.70
32600;DHT22;19277;51.778;7.912;2022-10-17T00:13:01;22.40;83.50
32600;DHT22;19277;51.778;7.912;2022-10-17T00:15:27;22.50;83.50
32600;DHT22;19277;51.778;7.912;2022-10-17T00:17:53;22.50;83.50
32600;DHT22;19277;51.778;7.912;2022-10-17T00:20:19;22.50;83.50
32600;DHT22;19277;51.778;7.912;2022-10-17T00:22:44;22.60;83.40
32600;DHT22;19277;51.778;7.912;2022-10-17T00:25:11;22.60;83.40
32600;DHT22;19277;51.778;7.912;2022-10-17T00:27:37;22.60;83.40
32600;DHT22;19277;51.778;7.912;2022-10-17T00:30:05;22.60;83.40
32600;DHT22;19277;51.778;7.912;2022-10-17T00:32:31;22.70;83.40
32600;DHT22;19277;51.778;7.912;2022-10-17T00:34:57;22.70;83.30
32600;DHT22;19277;51.778;7.912;2022-10-17T00:37:22;22.70;83.20
32600;DHT22;19277;51.778;7.912;2022-10-17T00:39:48;22.70;83.10
32600;DHT22;19277;51.778;7.912;2022-10-17T00:42:14;22.80;83.00
32600;DHT22;19277;51.778;7.912;2022-10-17T00:47:08;22.80;83.30
32600;DHT22;19277;51.778;7.912;2022-10-17T00:49:36;22.80;83.20
32600;DHT22;19277;51.778;7.912;2022-10-17T00:52:06;22.80;83.10
32600;DHT22;19277;51.778;7.912;2022-10-17T00:54:37;22.80;83.00
32600;DHT22;19277;51.778;7.912;2022-10-17T00:57:05;22.90;83.00
32600;DHT22;19277;51.778;7.912;2022-10-17T00:59:32;22.90;82.90
32600;DHT22;19277;51.778;7.912;2022-10-17T01:02:07;22.90;82.90
32600;DHT22;19277;51.778;7.912;2022-10-17T01:04:35;22.90;82.80
32600;DHT22;19277;51.778;7.912;2022-10-17T01:07:01;22.90;82.70
32600;DHT22;19277;51.778;7.912;2022-10-17T01:09:27;22.90;82.70
32600;DHT22;19277;51.778;7.912;2022-10-17T01:15:08;22.90;82.60
32600;DHT22;19277;51.778;7.912;2022-10-17T01:17:45;23.00;82.70
32600;DHT22;19277;51.778;7.912;2022-10-17T01:31:49;23.00;82.80
32600;DHT22;19277;51.778;7.912;2022-10-17T01:34:35;23.00;82.80
32600;DHT22;19277;51.778;7.912;2022-10-17T01:37:18;23.00;82.80
32600;DHT22;19277;51.778;7.912;2022-10-17T01:39:51;23.00;82.80
32600;DHT22;19277;51.778;7.912;2022-10-17T01:45:02;23.10;83.00
32600;DHT22;19277;51.778;7.912;2022-10-17T01:47:32;23.10;83.10
32600;DHT22;19277;51.778;7.912;2022-10-17T01:50:10;23.10;83.10
32600;DHT22;19277;51.778;7.912;2022-10-17T01:52:42;23.10;83.20
32600;DHT22;19277;51.778;7.912;2022-10-17T01:55:14;23.10;83.30
32600;DHT22;19277;51.778;7.912;2022-10-17T01:57:55;23.10;83.50
32600;DHT22;19277;51.778;7.912;2022-10-17T02:00:24;23.10;83.60
32600;DHT22;19277;51.778;7.912;2022-10-17T02:03:02;23.10;83.70
32600;DHT22;19277;51.778;7.912;2022-10-17T02:05:32;23.10;83.80
32600;DHT22;19277;51.778;7.912;2022-10-17T02:07:59;23.10;83.90
32600;DHT22;19277;51.778;7.912;2022-10-17T02:10:47;23.10;84.10
32600;DHT22;19277;51.778;7.912;2022-10-17T02:16:08;23.10;84.30
32600;DHT22;19277;51.778;7.912;2022-10-17T02:21:19;23.10;85.00
32600;DHT22;19277;51.778;7.912;2022-10-17T02:24:23;23.20;84.70
32600;DHT22;19277;51.778;7.912;2022-10-17T02:27:10;23.20;85.00
32600;DHT22;19277;51.778;7.912;2022-10-17T02:29:45;23.20;85.20
32600;DHT22;19277;51.778;7.912;2022-10-17T02:32:27;23.20;85.40
32600;DHT22;19277;51.778;7.912;2022-10-17T02:34:59;23.20;85.50
32600;DHT22;19277;51.778;7.912;2022-10-17T02:37:27;23.20;86.00
32600;DHT22;19277;51.778;7.912;2022-10-17T02:39:56;23.20;86.70
32600;DHT22;19277;51.778;7.912;2022-10-17T02:42:24;23.20;86.60
32600;DHT22;19277;51.778;7.912;2022-10-17T02:44:51;23.20;86.70
32600;DHT22;19277;51.778;7.912;2022-10-17T02:47:25;23.20;86.60
32600;DHT22;19277;51.778;7.912;2022-10-17T02:49:54;23.30;86.70
32600;DHT22;19277;51.778;7.912;2022-10-17T02:52:33;23.30;86.70
32600;DHT22;19277;51.778;7.912;2022-10-17T02:55:22;23.30;86.60
32600;DHT22;19277;51.778;7.912;2022-10-17T02:57:55;23.30;86.70
32600;DHT22;19277;51.778;7.912;2022-10-17T03:00:24;23.30;86.70
32600;DHT22;19277;51.778;7.912;2022-10-17T03:02:52;23.30;86.50
32600;DHT22;19277;51.778;7.912;2022-10-17T03:05:25;23.30;86.40
32600;DHT22;19277;51.778;7.912;2022-10-17T03:07:51;23.30;86.30
32600;DHT22;19277;51.778;7.912;2022-10-17T03:10:18;23.30;86.30
32600;DHT22;19277;51.778;7.912;2022-10-17T03:12:43;23.30;86.20
32600;DHT22;19277;51.778;7.912;2022-10-17T03:15:10;23.30;86.20
32600;DHT22;19277;51.778;7.912;2022-10-17T03:17:36;23.30;86.10
32600;DHT22;19277;51.778;7.912;2022-10-17T03:20:02;23.30;86.10
32600;DHT22;19277;51.778;7.912;2022-10-17T03:22:28;23.30;86.10
32600;DHT22;19277;51.778;7.912;2022-10-17T03:24:54;23.30;86.00
32600;DHT22;19277;51.778;7.912;2022-10-17T03:27:19;23.30;86.00
32600;DHT22;19277;51.778;7.912;2022-10-17T03:29:45;23.30;86.00
32600;DHT22;19277;51.778;7.912;2022-10-17T03:32:10;23.30;85.90
32600;DHT22;19277;51.778;7.912;2022-10-17T03:34:36;23.30;85.90
32600;DHT22;19277;51.778;7.912;2022-10-17T03:37:01;23.30;85.90
32600;DHT22;19277;51.778;7.912;2022-10-17T03:39:27;23.30;85.90
32600;DHT22;19277;51.778;7.912;2022-10-17T03:41:53;23.30;85.80
32600;DHT22;19277;51.778;7.912;2022-10-17T03:44:18;23.30;85.80
32600;DHT22;19277;51.778;7.912;2022-10-17T03:46:44;23.30;86.30
32600;DHT22;19277;51.778;7.912;2022-10-17T03:49:09;23.30;85.80
32600;DHT22;19277;51.778;7.912;2022-10-17T03:51:36;23.30;85.80
32600;DHT22;19277;51.778;7.912;2022-10-17T03:54:01;23.30;85.80
32600;DHT22;19277;51.778;7.912;2022-10-17T03:56:27;23.30;85.80
32600;DHT22;19277;51.778;7.912;2022-10-17T03:58:54;23.30;85.80
32600;DHT22;19277;51.778;7.912;2022-10-17T04:01:20;23.30;86.30
32600;DHT22;19277;51.778;7.912;2022-10-17T04:03:53;23.30;87.30
32600;DHT22;19277;51.778;7.912;2022-10-17T04:06:20;23.40;86.90
32600;DHT22;19277;51.778;7.912;2022-10-17T04:08:46;23.30;87.20
32600;DHT22;19277;51.778;7.912;2022-10-17T04:11:15;23.30;87.50
32600;DHT22;19277;51.778;7.912;2022-10-17T04:13:41;23.40;87.70
32600;DHT22;19277;51.778;7.912;2022-10-17T04:16:10;23.40;87.80
32600;DHT22;19277;51.778;7.912;2022-10-17T04:18:37;23.40;88.30
32600;DHT22;19277;51.778;7.912;2022-10-17T04:21:03;23.40;87.90
32600;DHT22;19277;51.778;7.912;2022-10-17T04:23:29;23.40;87.80
32600;DHT22;19277;51.778;7.912;2022-10-17T04:25:56;23.40;87.80
32600;DHT22;19277;51.778;7.912;2022-10-17T04:28:22;23.40;87.90
32600;DHT22;19277;51.778;7.912;2022-10-17T04:31:02;23.40;87.80
32600;DHT22;19277;51.778;7.912;2022-10-17T04:33:28;23.40;87.80
32600;DHT22;19277;51.778;7.912;2022-10-17T04:35:55;23.40;87.80
32600;DHT22;19277;51.778;7.912;2022-10-17T04:38:21;23.40;87.70
32600;DHT22;19277;51.778;7.912;2022-10-17T04:40:46;23.40;87.70
32600;DHT22;19277;51.778;7.912;2022-10-17T04:43:12;23.40;87.60
32600;DHT22;19277;51.778;7.912;2022-10-17T04:45:37;23.40;87.50
32600;DHT22;19277;51.778;7.912;2022-10-17T04:48:03;23.40;87.50
32600;DHT22;19277;51.778;7.912;2022-10-17T04:50:29;23.40;87.40
32600;DHT22;19277;51.778;7.912;2022-10-17T04:52:54;23.40;87.40
32600;DHT22;19277;51.778;7.912;2022-10-17T04:55:20;23.40;87.40
32600;DHT22;19277;51.778;7.912;2022-10-17T04:57:46;23.40;87.20
32600;DHT22;19277;51.778;7.912;2022-10-17T05:00:11;23.40;87.10
32600;DHT22;19277;51.778;7.912;2022-10-17T05:02:37;23.40;87.10
32600;DHT22;19277;51.778;7.912;2022-10-17T05:05:03;23.40;87.10
32600;DHT22;19277;51.778;7.912;2022-10-17T05:07:29;23.40;87.00
32600;DHT22;19277;51.778;7.912;2022-10-17T05:09:54;23.40;87.00
32600;DHT22;19277;51.778;7.912;2022-10-17T05:12:20;23.40;87.00
32600;DHT22;19277;51.778;7.912;2022-10-17T05:14:45;23.40;87.00
32600;DHT22;19277;51.778;7.912;2022-10-17T05:17:11;23.40;87.00
32600;DHT22;19277;51.778;7.912;2022-10-17T05:19:36;23.40;87.00
32600;DHT22;19277;51.778;7.912;2022-10-17T05:22:02;23.40;87.10
32600;DHT22;19277;51.778;7.912;2022-10-17T05:24:27;23.50;87.20
32600;DHT22;19277;51.778;7.912;2022-10-17T05:26:53;23.40;87.10
32600;DHT22;19277;51.778;7.912;2022-10-17T05:29:18;23.40;87.20
32600;DHT22;19277;51.778;7.912;2022-10-17T05:31:44;23.40;87.20
32600;DHT22;19277;51.778;7.912;2022-10-17T05:34:10;23.40;87.30
32600;DHT22;19277;51.778;7.912;2022-10-17T05:36:36;23.40;87.40
32600;DHT22;19277;51.778;7.912;2022-10-17T05:39:02;23.40;87.50
32600;DHT22;19277;51.778;7.912;2022-10-17T05:41:27;23.40;87.50
32600;DHT22;19277;51.778;7.912;2022-10-17T05:43:53;23.40;87.60
32600;DHT22;19277;51.778;7.912;2022-10-17T05:46:19;23.40;87.70
32600;DHT22;19277;51.778;7.912;2022-10-17T05:48:44;23.50;87.80
32600;DHT22;19277;51.778;7.912;2022-10-17T05:51:10;23.50;87.80
32600;DHT22;19277;51.778;7.912;2022-10-17T05:53:38;23.50;87.80
32600;DHT22;19277;51.778;7.912;2022-10-17T05:56:06;23.50;87.90
32600;DHT22;19277;51.778;7.912;2022-10-17T05:58:33;23.50;87.90
32600;DHT22;19277;51.778;7.912;2022-10-17T06:01:04;23.50;88.00
32600;DHT22;19277;51.778;7.912;2022-10-17T06:03:30;23.50;88.00
32600;DHT22;19277;51.778;7.912;2022-10-17T06:05:57;23.50;88.00
32600;DHT22;19277;51.778;7.912;2022-10-17T06:08:27;23.40;88.00
32600;DHT22;19277;51.778;7.912;2022-10-17T06:10:52;23.50;88.00
32600;DHT22;19277;51.778;7.912;2022-10-17T06:13:18;23.40;88.00
32600;DHT22;19277;51.778;7.912;2022-10-17T06:15:44;23.50;88.00
32600;DHT22;19277;51.778;7.912;2022-10-17T06:18:10;23.40;88.00
32600;DHT22;19277;51.778;7.912;2022-10-17T06:20:36;23.50;88.00
32600;DHT22;19277;51.778;7.912;2022-10-17T06:23:02;23.50;87.90
32600;DHT22;19277;51.778;7.912;2022-10-17T06:25:30;23.50;87.90
32600;DHT22;19277;51.778;7.912;2022-10-17T06:27:56;23.50;87.90
32600;DHT22;19277;51.778;7.912;2022-10-17T06:30:21;23.40;87.80
32600;DHT22;19277;51.778;7.912;2022-10-17T06:32:47;23.50;87.90
32600;DHT22;19277;51.778;7.912;2022-10-17T06:35:13;23.50;87.80
32600;DHT22;19277;51.778;7.912;2022-10-17T06:37:38;23.50;88.00
32600;DHT22;19277;51.778;7.912;2022-10-17T06:40:04;23.50;88.30
32600;DHT22;19277;51.778;7.912;2022-10-17T06:42:32;23.50;88.40
32600;DHT22;19277;51.778;7.912;2022-10-17T06:44:58;23.50;88.60
32600;DHT22;19277;51.778;7.912;2022-10-17T06:47:23;23.50;88.50
32600;DHT22;19277;51.778;7.912;2022-10-17T06:49:49;23.50;88.40
32600;DHT22;19277;51.778;7.912;2022-10-17T06:52:14;23.50;88.30
32600;DHT22;19277;51.778;7.912;2022-10-17T06:54:42;23.50;88.10
32600;DHT22;19277;51.778;7.912;2022-10-17T06:57:08;23.50;79.90
32600;DHT22;19277;51.778;7.912;2022-10-17T06:59:33;23.30;79.20
32600;DHT22;19277;51.778;7.912;2022-10-17T07:02:00;22.90;78.80
32600;DHT22;19277;51.778;7.912;2022-10-17T07:04:26;22.60;79.50
32600;DHT22;19277;51.778;7.912;2022-10-17T07:06:52;22.30;80.70
32600;DHT22;19277;51.778;7.912;2022-10-17T07:09:18;22.00;81.80
32600;DHT22;19277;51.778;7.912;2022-10-17T07:11:44;21.70;82.70
32600;DHT22;19277;51.778;7.912;2022-10-17T07:14:09;21.50;83.60
32600;DHT22;19277;51.778;7.912;2022-10-17T07:16:35;21.30;84.50
32600;DHT22;19277;51.778;7.912;2022-10-17T07:19:00;21.10;85.00
32600;DHT22;19277;51.778;7.912;2022-10-17T07:21:26;21.00;85.80
32600;DHT22;19277;51.778;7.912;2022-10-17T07:23:51;20.90;86.00
32600;DHT22;19277;51.778;7.912;2022-10-17T07:26:18;20.90;86.90
32600;DHT22;19277;51.778;7.912;2022-10-17T07:28:45;20.90;87.40
32600;DHT22;19277;51.778;7.912;2022-10-17T07:31:14;20.90;87.20
32600;DHT22;19277;51.778;7.912;2022-10-17T07:33:41;20.90;86.80
32600;DHT22;19277;51.778;7.912;2022-10-17T07:36:07;20.90;87.00
32600;DHT22;19277;51.778;7.912;2022-10-17T07:38:33;21.00;86.90
32600;DHT22;19277;51.778;7.912;2022-10-17T07:41:03;20.90;86.80
32600;DHT22;19277;51.778;7.912;2022-10-17T07:43:29;20.90;87.20
32600;DHT22;19277;51.778;7.912;2022-10-17T07:45:55;20.90;87.40
32600;DHT22;19277;51.778;7.912;2022-10-17T07:48:22;20.90;88.00
32600;DHT22;19277;51.778;7.912;2022-10-17T07:50:48;20.90;87.60
32600;DHT22;19277;51.778;7.912;2022-10-17T07:53:14;20.90;87.90
32600;DHT22;19277;51.778;7.912;2022-10-17T07:55:40;20.90;87.80
32600;DHT22;19277;51.778;7.912;2022-10-17T07:58:07;20.90;88.00
32600;DHT22;19277;51.778;7.912;2022-10-17T08:00:34;20.90;88.10
32600;DHT22;19277;51.778;7.912;2022-10-17T08:03:00;21.00;88.10
32600;DHT22;19277;51.778;7.912;2022-10-17T08:05:26;21.00;88.00
32600;DHT22;19277;51.778;7.912;2022-10-17T08:07:53;21.00;88.10
32600;DHT22;19277;51.778;7.912;2022-10-17T08:10:19;21.10;88.10
32600;DHT22;19277;51.778;7.912;2022-10-17T08:12:44;21.10;88.30
32600;DHT22;19277;51.778;7.912;2022-10-17T08:15:10;21.20;88.00
32600;DHT22;19277;51.778;7.912;2022-10-17T08:17:37;21.20;88.00
32600;DHT22;19277;51.778;7.912;2022-10-17T08:20:04;21.20;87.80
32600;DHT22;19277;51.778;7.912;2022-10-17T08:22:31;21.30;87.70
32600;DHT22;19277;51.778;7.912;2022-10-17T08:24:57;21.30;87.70
32600;DHT22;19277;51.778;7.912;2022-10-17T08:27:23;21.40;87.60
32600;DHT22;19277;51.778;7.912;2022-10-17T08:29:50;21.50;87.60
32600;DHT22;19277;51.778;7.912;2022-10-17T08:32:20;21.50;87.20
32600;DHT22;19277;51.778;7.912;2022-10-17T08:34:46;21.50;87.40
32600;DHT22;19277;51.778;7.912;2022-10-17T08:37:13;21.60;87.00
32600;DHT22;19277;51.778;7.912;2022-10-17T08:39:42;21.60;87.20
32600;DHT22;19277;51.778;7.912;2022-10-17T08:44:50;21.70;86.50
32600;DHT22;19277;51.778;7.912;2022-10-17T08:47:34;21.80;86.60
32600;DHT22;19277;51.778;7.912;2022-10-17T08:50:03;21.80;86.50
32600;DHT22;19277;51.778;7.912;2022-10-17T08:55:14;21.80;86.60
32600;DHT22;19277;51.778;7.912;2022-10-17T08:57:40;21.80;86.50
32600;DHT22;19277;51.778;7.912;2022-10-17T09:00:19;21.90;86.70
32600;DHT22;19277;51.778;7.912;2022-10-17T09:05:50;21.90;86.60
32600;DHT22;19277;51.778;7.912;2022-10-17T09:08:23;22.00;86.90
32600;DHT22;19277;51.778;7.912;2022-10-17T09:16:43;22.10;86.10
32600;DHT22;19277;51.778;7.912;2022-10-17T09:19:20;22.20;85.80
32600;DHT22;19277;51.778;7.912;2022-10-17T09:24:22;22.30;85.20
32600;DHT22;19277;51.778;7.912;2022-10-17T09:26:50;22.30;85.10
32600;DHT22;19277;51.778;7.912;2022-10-17T09:29:26;22.40;84.90
32600;DHT22;19277;51.778;7.912;2022-10-17T09:32:24;22.40;84.80
32600;DHT22;19277;51.778;7.912;2022-10-17T09:34:53;22.40;84.50
32600;DHT22;19277;51.778;7.912;2022-10-17T09:37:23;22.40;84.60
32600;DHT22;19277;51.778;7.912;2022-10-17T09:39:50;22.40;84.60
32600;DHT22;19277;51.778;7.912;2022-10-17T09:42:18;22.40;84.40
32600;DHT22;19277;51.778;7.912;2022-10-17T09:44:54;22.50;84.30
32600;DHT22;19277;51.778;7.912;2022-10-17T09:47:33;22.50;83.90
32600;DHT22;19277;51.778;7.912;2022-10-17T09:50:00;22.50;83.90
32600;DHT22;19277;51.778;7.912;2022-10-17T09:52:34;22.60;83.70
32600;DHT22;19277;51.778;7.912;2022-10-17T09:55:31;22.60;83.80
32600;DHT22;19277;51.778;7.912;2022-10-17T09:58:01;22.60;83.70
32600;DHT22;19277;51.778;7.912;2022-10-17T10:00:33;22.60;83.50
32600;DHT22;19277;51.778;7.912;2022-10-17T10:05:33;22.70;83.80
32600;DHT22;19277;51.778;7.912;2022-10-17T10:08:05;22.70;83.80
32600;DHT22;19277;51.778;7.912;2022-10-17T10:10:31;22.70;83.70
32600;DHT22;19277;51.778;7.912;2022-10-17T10:13:17;22.80;84.10
32600;DHT22;19277;51.778;7.912;2022-10-17T10:15:46;22.80;84.10
32600;DHT22;19277;51.778;7.912;2022-10-17T10:18:33;22.90;84.50
32600;DHT22;19277;51.778;7.912;2022-10-17T10:21:16;22.90;83.70
32600;DHT22;19277;51.778;7.912;2022-10-17T10:24:05;23.00;83.50
32600;DHT22;19277;51.778;7.912;2022-10-17T10:26:38;23.00;83.30
32600;DHT22;19277;51.778;7.912;2022-10-17T10:29:24;23.00;83.30
32600;DHT22;19277;51.778;7.912;2022-10-17T10:31:51;23.10;83.10
32600;DHT22;19277;51.778;7.912;2022-10-17T10:34:29;23.10;83.40
32600;DHT22;19277;51.778;7.912;2022-10-17T10:37:00;23.10;82.80
32600;DHT22;19277;51.778;7.912;2022-10-17T10:42:02;23.20;82.70
32600;DHT22;19277;51.778;7.912;2022-10-17T10:44:30;23.20;82.70
32600;DHT22;19277;51.778;7.912;2022-10-17T10:47:21;23.20;82.90
32600;DHT22;19277;51.778;7.912;2022-10-17T10:49:50;23.20;82.90
32600;DHT22;19277;51.778;7.912;2022-10-17T10:52:36;23.30;82.80
32600;DHT22;19277;51.778;7.912;2022-10-17T10:57:41;23.30;82.90
32600;DHT22;19277;51.778;7.912;2022-10-17T11:02:50;23.40;83.20
32600;DHT22;19277;51.778;7.912;2022-10-17T11:07:58;23.40;83.30
32600;DHT22;19277;51.778;7.912;2022-10-17T11:10:27;23.40;83.30
32600;DHT22;19277;51.778;7.912;2022-10-17T11:13:15;23.40;82.80
32600;DHT22;19277;51.778;7.912;2022-10-17T11:15:48;23.40;81.70
32600;DHT22;19277;51.778;7.912;2022-10-17T11:19:26;23.40;81.20
32600;DHT22;19277;51.778;7.912;2022-10-17T11:21:27;23.40;81.80
32600;DHT22;19277;51.778;7.912;2022-10-17T11:27:02;23.40;80.80
32600;DHT22;19277;51.778;7.912;2022-10-17T11:29:30;23.40;80.90
32600;DHT22;19277;51.778;7.912;2022-10-17T11:32:01;23.30;80.80
32600;DHT22;19277;51.778;7.912;2022-10-17T11:34:31;23.40;80.80
32600;DHT22;19277;51.778;7.912;2022-10-17T11:37:02;23.40;80.30
32600;DHT22;19277;51.778;7.912;2022-10-17T11:42:29;23.40;80.80
32600;DHT22;19277;51.778;7.912;2022-10-17T11:45:01;23.30;80.30
32600;DHT22;19277;51.778;7.912;2022-10-17T11:47:50;23.30;80.70
32600;DHT22;19277;51.778;7.912;2022-10-17T11:50:31;23.30;80.60
32600;DHT22;19277;51.778;7.912;2022-10-17T11:53:16;23.30;80.30
32600;DHT22;19277;51.778;7.912;2022-10-17T11:55:44;23.30;80.70
32600;DHT22;19277;51.778;7.912;2022-10-17T12:01:10;23.30;80.20
32600;DHT22;19277;51.778;7.912;2022-10-17T12:03:53;23.30;80.30
32600;DHT22;19277;51.778;7.912;2022-10-17T12:06:47;23.30;79.80
32600;DHT22;19277;51.778;7.912;2022-10-17T12:12:00;23.20;79.70
32600;DHT22;19277;51.778;7.912;2022-10-17T12:14:39;23.20;80.50
32600;DHT22;19277;51.778;7.912;2022-10-17T12:17:35;23.10;80.40
32600;DHT22;19277;51.778;7.912;2022-10-17T12:22:52;23.10;80.50
32600;DHT22;19277;51.778;7.912;2022-10-17T12:25:20;23.10;80.50
32600;DHT22;19277;51.778;7.912;2022-10-17T12:27:47;23.10;80.60
32600;DHT22;19277;51.778;7.912;2022-10-17T12:30:25;23.10;80.70
32600;DHT22;19277;51.778;7.912;2022-10-17T12:35:23;23.00;80.20
32600;DHT22;19277;51.778;7.912;2022-10-17T12:43:02;23.00;80.50
32600;DHT22;19277;51.778;7.912;2022-10-17T12:46:00;23.00;81.30
32600;DHT22;19277;51.778;7.912;2022-10-17T12:51:19;23.00;82.30
32600;DHT22;19277;51.778;7.912;2022-10-17T12:56:58;23.10;82.50
32600;DHT22;19277;51.778;7.912;2022-10-17T12:59:26;23.10;82.40
32600;DHT22;19277;51.778;7.912;2022-10-17T13:01:57;23.20;82.40
32600;DHT22;19277;51.778;7.912;2022-10-17T13:04:24;23.20;82.30
32600;DHT22;19277;51.778;7.912;2022-10-17T13:06:54;23.30;82.30
32600;DHT22;19277;51.778;7.912;2022-10-17T13:09:25;23.30;82.20
32600;DHT22;19277;51.778;7.912;2022-10-17T13:11:52;23.30;82.20
32600;DHT22;19277;51.778;7.912;2022-10-17T13:14:20;23.40;82.20
32600;DHT22;19277;51.778;7.912;2022-10-17T13:17:33;23.40;82.10
32600;DHT22;19277;51.778;7.912;2022-10-17T13:19:59;23.40;82.10
32600;DHT22;19277;51.778;7.912;2022-10-17T13:22:28;23.40;82.00
32600;DHT22;19277;51.778;7.912;2022-10-17T13:25:07;23.40;82.00
32600;DHT22;19277;51.778;7.912;2022-10-17T13:27:34;23.50;82.00
32600;DHT22;19277;51.778;7.912;2022-10-17T13:30:01;23.50;82.00
32600;DHT22;19277;51.778;7.912;2022-10-17T13:32:36;23.50;82.00
32600;DHT22;19277;51.778;7.912;2022-10-17T13:35:14;23.50;82.00
32600;DHT22;19277;51.778;7.912;2022-10-17T13:37:43;23.50;82.00
32600;DHT22;19277;51.778;7.912;2022-10-17T13:40:17;23.50;82.00
32600;DHT22;19277;51.778;7.912;2022-10-17T13:42:43;23.50;81.90
32600;DHT22;19277;51.778;7.912;2022-10-17T13:47:42;23.50;81.90
32600;DHT22;19277;51.778;7.912;2022-10-17T13:50:18;23.60;81.90
32600;DHT22;19277;51.778;7.912;2022-10-17T13:52:44;23.50;81.90
32600;DHT22;19277;51.778;7.912;2022-10-17T13:55:16;23.50;81.90
32600;DHT22;19277;51.778;7.912;2022-10-17T13:57:41;23.60;82.00
32600;DHT22;19277;51.778;7.912;2022-10-17T14:00:18;23.60;82.00
32600;DHT22;19277;51.778;7.912;2022-10-17T14:02:44;23.60;82.00
32600;DHT22;19277;51.778;7.912;2022-10-17T14:05:15;23.50;81.90
32600;DHT22;19277;51.778;7.912;2022-10-17T14:07:59;23.50;81.90
32600;DHT22;19277;51.778;7.912;2022-10-17T14:10:30;23.50;81.90
32600;DHT22;19277;51.778;7.912;2022-10-17T14:12:57;23.60;82.10
32600;DHT22;19277;51.778;7.912;2022-10-17T14:15:28;23.60;82.10
32600;DHT22;19277;51.778;7.912;2022-10-17T14:18:03;23.60;82.30
32600;DHT22;19277;51.778;7.912;2022-10-17T14:20:30;23.60;82.60
32600;DHT22;19277;51.778;7.912;2022-10-17T14:22:56;23.60;82.80
32600;DHT22;19277;51.778;7.912;2022-10-17T14:25:37;23.60;83.00
32600;DHT22;19277;51.778;7.912;2022-10-17T14:30:44;23.70;83.50
32600;DHT22;19277;51.778;7.912;2022-10-17T14:33:17;23.70;83.60
32600;DHT22;19277;51.778;7.912;2022-10-17T14:35:51;23.70;83.80
32600;DHT22;19277;51.778;7.912;2022-10-17T14:38:18;23.70;84.10
32600;DHT22;19277;51.778;7.912;2022-10-17T14:41:02;23.70;84.20
32600;DHT22;19277;51.778;7.912;2022-10-17T14:43:30;23.70;84.20
32600;DHT22;19277;51.778;7.912;2022-10-17T14:46:00;23.80;84.40
32600;DHT22;19277;51.778;7.912;2022-10-17T14:48:28;23.80;84.30
32600;DHT22;19277;51.778;7.912;2022-10-17T14:51:16;23.80;84.20
32600;DHT22;19277;51.778;7.912;2022-10-17T14:54:02;23.80;84.10
32600;DHT22;19277;51.778;7.912;2022-10-17T14:56:39;23.80;84.00
32600;DHT22;19277;51.778;7.912;2022-10-17T14:59:06;23.80;84.00
32600;DHT22;19277;51.778;7.912;2022-10-17T15:01:34;23.80;83.90
32600;DHT22;19277;51.778;7.912;2022-10-17T15:04:00;23.80;83.80
32600;DHT22;19277;51.778;7.912;2022-10-17T15:06:32;23.80;83.80
32600;DHT22;19277;51.778;7.912;2022-10-17T15:08:58;23.80;83.70
32600;DHT22;19277;51.778;7.912;2022-10-17T15:11:23;23.80;83.70
32600;DHT22;19277;51.778;7.912;2022-10-17T15:13:50;23.80;83.60
32600;DHT22;19277;51.778;7.912;2022-10-17T15:16:26;23.80;83.70
32600;DHT22;19277;51.778;7.912;2022-10-17T15:18:55;23.80;84.30
32600;DHT22;19277;51.778;7.912;2022-10-17T15:21:22;23.80;83.90
32600;DHT22;19277;51.778;7.912;2022-10-17T15:23:49;23.80;84.00
32600;DHT22;19277;51.778;7.912;2022-10-17T15:26:18;23.80;84.10
32600;DHT22;19277;51.778;7.912;2022-10-17T15:28:45;23.80;84.20
32600;DHT22;19277;51.778;7.912;2022-10-17T15:31:13;23.80;84.30
32600;DHT22;19277;51.778;7.912;2022-10-17T15:33:39;23.90;84.40
32600;DHT22;19277;51.778;7.912;2022-10-17T15:36:25;23.90;84.40
32600;DHT22;19277;51.778;7.912;2022-10-17T15:38:53;23.90;84.40
32600;DHT22;19277;51.778;7.912;2022-10-17T15:41:21;23.90;84.40
32600;DHT22;19277;51.778;7.912;2022-10-17T15:43:47;23.90;84.40
32600;DHT22;19277;51.778;7.912;2022-10-17T15:46:25;23.90;84.40
32600;DHT22;19277;51.778;7.912;2022-10-17T15:48:52;23.90;84.50
32600;DHT22;19277;51.778;7.912;2022-10-17T15:51:18;23.90;84.50
32600;DHT22;19277;51.778;7.912;2022-10-17T15:53:44;23.90;84.60
32600;DHT22;19277;51.778;7.912;2022-10-17T15:56:31;23.90;84.60
32600;DHT22;19277;51.778;7.912;2022-10-17T15:59:04;23.90;84.60
32600;DHT22;19277;51.778;7.912;2022-10-17T16:01:32;23.90;84.60
32600;DHT22;19277;51.778;7.912;2022-10-17T16:03:58;23.90;84.70
32600;DHT22;19277;51.778;7.912;2022-10-17T16:06:24;23.90;84.80
32600;DHT22;19277;51.778;7.912;2022-10-17T16:08:51;24.00;84.80
32600;DHT22;19277;51.778;7.912;2022-10-17T16:11:33;23.90;84.80
32600;DHT22;19277;51.778;7.912;2022-10-17T16:14:05;23.90;84.80
32600;DHT22;19277;51.778;7.912;2022-10-17T16:16:31;24.00;84.80
32600;DHT22;19277;51.778;7.912;2022-10-17T16:18:56;24.00;84.80
32600;DHT22;19277;51.778;7.912;2022-10-17T16:21:30;24.00;84.80
32600;DHT22;19277;51.778;7.912;2022-10-17T16:23:57;24.00;84.80
32600;DHT22;19277;51.778;7.912;2022-10-17T16:26:23;24.00;84.80
32600;DHT22;19277;51.778;7.912;2022-10-17T16:28:49;24.00;84.80
32600;DHT22;19277;51.778;7.912;2022-10-17T16:33:51;24.00;84.80
32600;DHT22;19277;51.778;7.912;2022-10-17T16:36:17;24.00;85.30
32600;DHT22;19277;51.778;7.912;2022-10-17T16:38:43;24.00;84.80
32600;DHT22;19277;51.778;7.912;2022-10-17T16:41:36;24.00;84.90
32600;DHT22;19277;51.778;7.912;2022-10-17T16:44:07;24.00;84.90
32600;DHT22;19277;51.778;7.912;2022-10-17T16:46:35;24.00;84.90
32600;DHT22;19277;51.778;7.912;2022-10-17T16:49:02;24.00;85.00
32600;DHT22;19277;51.778;7.912;2022-10-17T16:51:28;24.00;85.00
32600;DHT22;19277;51.778;7.912;2022-10-17T16:53:55;24.00;85.10
32600;DHT22;19277;51.778;7.912;2022-10-17T16:56:26;23.90;85.10
32600;DHT22;19277;51.778;7.912;2022-10-17T16:58:54;23.90;85.10
32600;DHT22;19277;51.778;7.912;2022-10-17T17:01:22;24.00;85.60
32600;DHT22;19277;51.778;7.912;2022-10-17T17:03:49;23.90;85.00
32600;DHT22;19277;51.778;7.912;2022-10-17T17:06:17;23.90;85.00
32600;DHT22;19277;51.778;7.912;2022-10-17T17:08:44;24.00;85.00
32600;DHT22;19277;51.778;7.912;2022-10-17T17:11:11;23.90;84.90
32600;DHT22;19277;51.778;7.912;2022-10-17T17:13:37;23.90;84.80
32600;DHT22;19277;51.778;7.912;2022-10-17T17:16:14;23.90;84.80
32600;DHT22;19277;51.778;7.912;2022-10-17T17:18:40;23.90;84.80